createdAt,value
2023-04-01T00:02:24.918Z,7.70
2023-04-01T00:04:51.712Z,7.70
2023-04-01T00:07:18.455Z,7.70
2023-04-01T00:09:45.592Z,7.70
2023-04-01T00:12:12.399Z,7.70
2023-04-01T00:14:40.826Z,7.60
2023-04-01T00:17:07.796Z,7.60
2023-04-01T00:19:34.743Z,7.60
2023-04-01T00:22:01.585Z,7.60
2023-04-01T00:24:28.301Z,7.60
2023-04-01T00:26:55.911Z,7.60
2023-04-01T00:29:25.286Z,7.70
2023-04-01T00:31:52.132Z,7.70
2023-04-01T00:34:19.117Z,7.70
2023-04-01T00:36:46.048Z,7.70
2023-04-01T00:39:12.795Z,7.70
2023-04-01T00:41:39.938Z,7.70
2023-04-01T00:44:20.556Z,7.70
2023-04-01T00:46:47.418Z,7.70
2023-04-01T00:49:15.501Z,7.70
2023-04-01T00:51:43.249Z,7.70
2023-04-01T00:54:10.881Z,7.70
2023-04-01T00:56:51.030Z,7.70
2023-04-01T00:59:24.666Z,7.70
2023-04-01T01:01:51.576Z,7.70
2023-04-01T01:04:30.323Z,7.70
2023-04-01T01:07:21.943Z,7.70
2023-04-01T01:09:53.905Z,7.70
2023-04-01T01:12:22.634Z,7.70
2023-04-01T01:14:54.228Z,7.70
2023-04-01T01:17:34.215Z,7.70
2023-04-01T01:20:35.073Z,7.70
2023-04-01T01:23:29.852Z,7.70
2023-04-01T01:26:34.191Z,7.70
2023-04-01T01:29:06.910Z,7.70
2023-04-01T01:31:47.356Z,7.70
2023-04-01T01:34:23.382Z,7.70
2023-04-01T01:36:55.143Z,7.60
2023-04-01T01:39:23.430Z,7.60
2023-04-01T01:41:50.405Z,7.60
2023-04-01T01:44:17.584Z,7.60
2023-04-01T01:46:46.068Z,7.60
2023-04-01T01:49:14.442Z,7.60
2023-04-01T01:51:41.216Z,7.60
2023-04-01T01:54:08.053Z,7.60
2023-04-01T01:56:36.363Z,7.60
2023-04-01T01:59:06.511Z,7.60
2023-04-01T02:01:36.356Z,7.60
2023-04-01T02:04:03.968Z,7.60
2023-04-01T02:06:35.829Z,7.60
2023-04-01T02:09:08.822Z,7.60
2023-04-01T02:11:45.087Z,7.60
2023-04-01T02:14:27.052Z,7.60
2023-04-01T02:17:01.101Z,7.60
2023-04-01T02:19:33.639Z,7.60
2023-04-01T02:22:02.802Z,7.50
2023-04-01T02:24:31.991Z,7.40
2023-04-01T02:26:58.874Z,7.20
2023-04-01T02:29:26.731Z,7.00
2023-04-01T02:31:54.463Z,6.90
2023-04-01T02:34:22.935Z,6.80
2023-04-01T02:36:51.320Z,6.80
2023-04-01T02:39:18.765Z,6.70
2023-04-01T02:41:46.757Z,6.70
2023-04-01T02:44:15.392Z,6.60
2023-04-01T02:46:42.242Z,6.60
2023-04-01T02:49:09.027Z,6.60
2023-04-01T02:51:35.867Z,6.50
2023-04-01T02:54:02.607Z,6.60
2023-04-01T02:56:29.434Z,6.60
2023-04-01T02:58:56.712Z,6.50
2023-04-01T03:01:23.929Z,6.50
2023-04-01T03:03:50.868Z,6.50
2023-04-01T03:06:18.262Z,6.50
2023-04-01T03:08:45.364Z,6.40
2023-04-01T03:11:12.233Z,6.40
2023-04-01T03:13:39.132Z,6.40
2023-04-01T03:16:06.362Z,6.40
2023-04-01T03:18:33.344Z,6.50
2023-04-01T03:21:20.125Z,6.50
2023-04-01T03:23:46.869Z,6.50
2023-04-01T03:26:14.386Z,6.50
2023-04-01T03:28:41.186Z,6.50
2023-04-01T03:31:08.301Z,6.50
2023-04-01T03:33:35.029Z,6.50
2023-04-01T03:36:01.820Z,6.60
2023-04-01T03:38:28.618Z,6.60
2023-04-01T03:40:55.442Z,6.60
2023-04-01T03:43:22.365Z,6.60
2023-04-01T03:45:51.201Z,6.60
2023-04-01T03:48:18.730Z,6.70
2023-04-01T03:50:45.872Z,6.70
2023-04-01T03:53:13.098Z,6.70
2023-04-01T03:55:40.694Z,6.80
2023-04-01T03:58:08.660Z,6.80
2023-04-01T04:00:35.787Z,6.80
2023-04-01T04:03:02.770Z,6.90
2023-04-01T04:05:29.634Z,6.90
2023-04-01T04:07:56.759Z,6.90
2023-04-01T04:10:24.382Z,7.00
2023-04-01T04:12:51.562Z,7.00
2023-04-01T04:15:18.383Z,7.00
2023-04-01T04:17:46.706Z,7.00
2023-04-01T04:20:14.061Z,7.00
2023-04-01T04:22:40.773Z,7.00
2023-04-01T04:25:08.117Z,7.00
2023-04-01T04:27:35.264Z,7.00
2023-04-01T04:30:02.069Z,7.00
2023-04-01T04:32:30.022Z,7.00
2023-04-01T04:34:56.902Z,7.00
2023-04-01T04:37:23.679Z,7.00
2023-04-01T04:39:50.381Z,7.00
2023-04-01T04:42:17.069Z,7.00
2023-04-01T04:44:43.773Z,6.90
2023-04-01T04:47:10.582Z,6.90
2023-04-01T04:49:37.369Z,7.00
2023-04-01T04:52:04.102Z,6.90
2023-04-01T04:54:31.052Z,6.90
2023-04-01T04:56:57.822Z,6.90
2023-04-01T04:59:24.685Z,6.80
2023-04-01T05:01:51.415Z,6.80
2023-04-01T05:04:18.130Z,6.70
2023-04-01T05:06:46.092Z,6.70
2023-04-01T05:09:13.035Z,6.60
2023-04-01T05:11:39.690Z,6.70
2023-04-01T05:14:06.472Z,6.70
2023-04-01T05:16:33.289Z,6.70
2023-04-01T05:19:00.324Z,6.80
2023-04-01T05:21:27.163Z,6.80
2023-04-01T05:23:53.836Z,6.80
2023-04-01T05:26:20.554Z,6.70
2023-04-01T05:28:47.259Z,6.80
2023-04-01T05:31:14.142Z,6.80
2023-04-01T05:33:40.831Z,6.80
2023-04-01T05:36:17.408Z,6.90
2023-04-01T05:38:46.788Z,7.00
2023-04-01T05:41:14.770Z,7.00
2023-04-01T05:43:42.391Z,7.10
2023-04-01T05:46:09.454Z,7.10
2023-04-01T05:48:36.555Z,7.10
2023-04-01T05:51:04.676Z,7.10
2023-04-01T05:53:31.500Z,7.10
2023-04-01T05:55:58.196Z,7.10
2023-04-01T05:58:25.147Z,7.10
2023-04-01T06:01:05.897Z,7.10
2023-04-01T06:03:36.075Z,7.00
2023-04-01T06:06:03.188Z,7.00
2023-04-01T06:08:32.146Z,7.00
2023-04-01T06:11:00.665Z,7.00
2023-04-01T06:13:47.670Z,7.00
2023-04-01T06:16:41.149Z,7.00
2023-04-01T06:19:13.945Z,6.90
2023-04-01T06:21:52.507Z,6.90
2023-04-01T06:24:19.190Z,6.90
2023-04-01T06:26:51.841Z,6.80
2023-04-01T06:29:48.251Z,6.90
2023-04-01T06:32:15.287Z,6.90
2023-04-01T06:34:44.889Z,6.80
2023-04-01T06:37:37.156Z,6.80
2023-04-01T06:40:36.850Z,6.80
2023-04-01T06:43:17.660Z,6.80
2023-04-01T06:46:01.706Z,6.80
2023-04-01T06:49:02.903Z,6.70
2023-04-01T06:51:56.952Z,6.80
2023-04-01T06:54:32.367Z,6.80
2023-04-01T06:57:14.881Z,6.80
2023-04-01T06:59:42.288Z,6.80
2023-04-01T07:02:12.008Z,6.80
2023-04-01T07:04:46.259Z,6.80
2023-04-01T07:07:36.013Z,6.80
2023-04-01T07:10:07.359Z,6.80
2023-04-01T07:12:36.836Z,6.80
2023-04-01T07:15:15.031Z,6.80
2023-04-01T07:17:42.768Z,6.80
2023-04-01T07:20:27.829Z,6.80
2023-04-01T07:22:58.677Z,6.90
2023-04-01T07:25:28.810Z,6.90
2023-04-01T07:28:06.541Z,7.00
2023-04-01T07:31:00.672Z,7.00
2023-04-01T07:33:37.771Z,7.00
2023-04-01T07:36:08.996Z,7.00
2023-04-01T07:39:14.134Z,7.10
2023-04-01T07:41:47.107Z,7.10
2023-04-01T07:44:29.678Z,7.10
2023-04-01T07:47:12.401Z,7.20
2023-04-01T07:49:40.291Z,7.20
2023-04-01T07:52:31.854Z,7.30
2023-04-01T07:55:09.828Z,7.20
2023-04-01T07:57:45.000Z,7.20
2023-04-01T08:00:24.483Z,7.20
2023-04-01T08:03:13.629Z,7.20
2023-04-01T08:06:08.020Z,7.20
2023-04-01T08:08:50.070Z,7.20
2023-04-01T08:11:52.633Z,7.10
2023-04-01T08:14:36.465Z,7.00
2023-04-01T08:17:09.423Z,6.90
2023-04-01T08:19:57.638Z,6.80
2023-04-01T08:22:51.759Z,6.80
2023-04-01T08:25:26.386Z,6.80
2023-04-01T08:27:58.445Z,6.80
2023-04-01T08:30:47.249Z,6.80
2023-04-01T08:33:19.095Z,6.80
2023-04-01T08:36:29.013Z,6.80
2023-04-01T08:38:58.839Z,6.90
2023-04-01T08:41:53.081Z,7.10
2023-04-01T08:44:41.407Z,7.20
2023-04-01T08:47:27.416Z,7.30
2023-04-01T08:50:25.290Z,7.50
2023-04-01T08:53:00.101Z,7.60
2023-04-01T08:55:38.969Z,7.70
2023-04-01T08:58:27.688Z,7.90
2023-04-01T09:01:08.689Z,8.10
2023-04-01T09:03:54.185Z,8.30
2023-04-01T09:06:20.904Z,8.30
2023-04-01T09:09:07.624Z,8.20
2023-04-01T09:11:50.883Z,8.00
2023-04-01T09:14:26.959Z,7.90
2023-04-01T09:17:09.971Z,7.80
2023-04-01T09:20:04.904Z,7.80
2023-04-01T09:23:08.189Z,7.70
2023-04-01T09:25:40.128Z,7.70
2023-04-01T09:28:18.730Z,7.80
2023-04-01T09:31:19.693Z,7.80
2023-04-01T09:34:09.120Z,7.80
2023-04-01T09:36:48.034Z,7.80
2023-04-01T09:39:14.747Z,7.80
2023-04-01T09:42:12.554Z,7.80
2023-04-01T09:44:51.619Z,7.80
2023-04-01T09:47:36.326Z,7.80
2023-04-01T09:51:00.266Z,7.90
2023-04-01T09:53:55.898Z,8.10
2023-04-01T09:56:50.140Z,8.40
2023-04-01T09:59:40.056Z,8.70
2023-04-01T10:02:22.119Z,8.80
2023-04-01T10:05:28.850Z,8.90
2023-04-01T10:08:14.239Z,9.00
2023-04-01T10:11:14.230Z,9.10
2023-04-01T10:13:55.903Z,9.20
2023-04-01T10:16:27.390Z,9.20
2023-04-01T10:18:57.136Z,9.10
2023-04-01T10:22:11.173Z,9.00
2023-04-01T10:24:52.282Z,9.00
2023-04-01T10:27:43.845Z,9.00
2023-04-01T10:30:48.146Z,8.90
2023-04-01T10:33:36.482Z,8.90
2023-04-01T10:36:41.141Z,8.90
2023-04-01T10:39:31.137Z,9.00
2023-04-01T10:42:06.206Z,9.20
2023-04-01T10:44:53.849Z,9.30
2023-04-01T10:47:32.533Z,9.40
2023-04-01T10:50:44.184Z,9.40
2023-04-01T10:53:25.254Z,9.50
2023-04-01T10:56:16.583Z,9.50
2023-04-01T10:59:35.564Z,9.40
2023-04-01T11:02:40.632Z,9.40
2023-04-01T11:05:44.370Z,9.50
2023-04-01T11:08:39.952Z,9.50
2023-04-01T11:11:44.412Z,9.40
2023-04-01T11:14:32.742Z,9.40
2023-04-01T11:17:43.767Z,9.30
2023-04-01T11:20:35.063Z,9.20
2023-04-01T11:23:28.849Z,9.10
2023-04-01T11:26:14.009Z,9.00
2023-04-01T11:28:50.600Z,8.90
2023-04-01T11:31:17.547Z,8.90
2023-04-01T11:34:15.399Z,8.90
2023-04-01T11:36:54.277Z,8.90
2023-04-01T11:39:35.562Z,9.00
2023-04-01T11:42:03.153Z,9.00
2023-04-01T11:44:30.682Z,8.90
2023-04-01T11:47:09.354Z,8.90
2023-04-01T11:49:47.914Z,8.80
2023-04-01T11:52:38.965Z,8.80
2023-04-01T11:55:14.733Z,8.80
2023-04-01T11:57:53.368Z,9.00
2023-04-01T12:00:38.791Z,9.10
2023-04-01T12:03:16.112Z,9.20
2023-04-01T12:05:48.910Z,9.20
2023-04-01T12:08:32.981Z,9.30
2023-04-01T12:11:26.071Z,9.40
2023-04-01T12:14:17.600Z,9.30
2023-04-01T12:16:52.686Z,9.30
2023-04-01T12:19:31.439Z,9.20
2023-04-01T12:22:07.098Z,9.20
2023-04-01T12:24:48.238Z,9.20
2023-04-01T12:27:23.357Z,9.10
2023-04-01T12:30:19.270Z,9.00
2023-04-01T12:33:25.524Z,8.90
2023-04-01T12:36:11.383Z,8.80
2023-04-01T12:39:00.322Z,8.70
2023-04-01T12:41:42.244Z,8.60
2023-04-01T12:44:40.724Z,8.50
2023-04-01T12:47:41.730Z,8.40
2023-04-01T12:50:43.854Z,8.40
2023-04-01T12:53:35.692Z,8.40
2023-04-01T12:56:05.032Z,8.40
2023-04-01T12:58:56.332Z,8.40
2023-04-01T13:01:31.651Z,8.40
2023-04-01T13:04:32.974Z,8.50
2023-04-01T13:07:14.777Z,8.60
2023-04-01T13:10:03.829Z,8.70
2023-04-01T13:12:46.522Z,8.70
2023-04-01T13:15:34.313Z,8.70
2023-04-01T13:18:34.793Z,8.70
2023-04-01T13:21:11.181Z,8.60
2023-04-01T13:24:07.085Z,8.60
2023-04-01T13:26:33.740Z,8.60
2023-04-01T13:29:14.803Z,8.50
2023-04-01T13:32:15.209Z,8.50
2023-04-01T13:35:06.520Z,8.40
2023-04-01T13:37:54.976Z,8.40
2023-04-01T13:41:02.780Z,8.30
2023-04-01T13:44:01.533Z,8.20
2023-04-01T13:46:56.643Z,8.10
2023-04-01T13:49:46.394Z,8.10
2023-04-01T13:52:32.199Z,8.00
2023-04-01T13:55:01.686Z,8.00
2023-04-01T13:57:53.926Z,7.90
2023-04-01T14:00:29.858Z,7.80
2023-04-01T14:03:20.673Z,7.80
2023-04-01T14:06:27.501Z,7.80
2023-04-01T14:09:09.167Z,7.80
2023-04-01T14:11:57.554Z,7.80
2023-04-01T14:14:47.391Z,7.80
2023-04-01T14:17:49.307Z,7.80
2023-04-01T14:20:34.591Z,7.80
2023-04-01T14:23:10.352Z,7.70
2023-04-01T14:26:08.208Z,7.70
2023-04-01T14:29:07.270Z,7.70
2023-04-01T14:31:58.602Z,7.70
2023-04-01T14:34:39.770Z,7.70
2023-04-01T14:37:21.518Z,7.70
2023-04-01T14:40:46.633Z,7.80
2023-04-01T14:43:41.835Z,7.80
2023-04-01T14:46:16.096Z,7.90
2023-04-01T14:49:02.571Z,7.90
2023-04-01T14:51:29.286Z,7.90
2023-04-01T14:54:07.179Z,8.00
2023-04-01T14:57:11.907Z,8.00
2023-04-01T14:59:49.250Z,8.00
2023-04-01T15:02:47.328Z,8.00
2023-04-01T15:05:29.080Z,8.00
2023-04-01T15:07:58.742Z,8.00
2023-04-01T15:10:48.876Z,8.00
2023-04-01T15:13:27.464Z,8.00
2023-04-01T15:16:37.001Z,8.00
2023-04-01T15:19:37.458Z,7.90
2023-04-01T15:22:33.197Z,7.90
2023-04-01T15:25:31.032Z,7.90
2023-04-01T15:28:19.782Z,8.00
2023-04-01T15:31:07.076Z,8.00
2023-04-01T15:33:47.007Z,8.00
2023-04-01T15:36:42.598Z,8.10
2023-04-01T15:39:09.197Z,8.10
2023-04-01T15:41:44.613Z,8.10
2023-04-01T15:44:39.473Z,8.10
2023-04-01T15:47:38.945Z,8.10
2023-04-01T15:50:29.464Z,8.00
2023-04-01T15:53:09.075Z,8.00
2023-04-01T15:55:49.346Z,8.00
2023-04-01T15:58:36.869Z,8.00
2023-04-01T16:01:11.521Z,8.10
2023-04-01T16:03:48.294Z,8.00
2023-04-01T16:06:21.186Z,8.00
2023-04-01T16:09:19.901Z,8.00
2023-04-01T16:11:59.192Z,7.90
2023-04-01T16:14:58.411Z,7.90
2023-04-01T16:17:50.091Z,7.90
2023-04-01T16:20:23.519Z,7.90
2023-04-01T16:23:03.666Z,7.90
2023-04-01T16:26:10.181Z,7.90
2023-04-01T16:28:56.687Z,8.00
2023-04-01T16:31:53.781Z,8.00
2023-04-01T16:34:37.203Z,8.00
2023-04-01T16:37:13.992Z,8.10
2023-04-01T16:40:17.746Z,8.10
2023-04-01T16:42:57.344Z,8.10
2023-04-01T16:45:30.338Z,8.10
2023-04-01T16:48:21.683Z,8.10
2023-04-01T16:50:56.408Z,8.00
2023-04-01T16:53:31.895Z,8.00
2023-04-01T16:56:02.492Z,8.00
2023-04-01T16:58:56.587Z,8.00
2023-04-01T17:01:28.277Z,8.00
2023-04-01T17:04:01.577Z,7.90
2023-04-01T17:06:48.325Z,7.90
2023-04-01T17:09:25.240Z,7.80
2023-04-01T17:12:23.358Z,7.80
2023-04-01T17:15:23.394Z,7.80
2023-04-01T17:18:11.200Z,7.70
2023-04-01T17:20:41.935Z,7.70
2023-04-01T17:23:21.991Z,7.60
2023-04-01T17:26:07.547Z,7.50
2023-04-01T17:28:59.632Z,7.40
2023-04-01T17:31:26.372Z,7.30
2023-04-01T17:34:25.185Z,7.10
2023-04-01T17:37:21.095Z,7.00
2023-04-01T17:39:55.527Z,6.90
2023-04-01T17:42:43.874Z,6.80
2023-04-01T17:45:32.772Z,6.70
2023-04-01T17:48:09.750Z,6.70
2023-04-01T17:51:09.546Z,6.70
2023-04-01T17:53:45.731Z,6.70
2023-04-01T17:56:34.084Z,6.70
2023-04-01T17:59:17.369Z,6.70
2023-04-01T18:01:59.942Z,6.60
2023-04-01T18:04:48.625Z,6.60
2023-04-01T18:07:35.606Z,6.60
2023-04-01T18:10:33.714Z,6.50
2023-04-01T18:13:25.612Z,6.50
2023-04-01T18:16:20.643Z,6.50
2023-04-01T18:19:02.936Z,6.50
2023-04-01T18:21:37.981Z,6.50
2023-04-01T18:24:13.893Z,6.50
2023-04-01T18:26:44.403Z,6.50
2023-04-01T18:29:18.962Z,6.50
2023-04-01T18:31:49.283Z,6.50
2023-04-01T18:34:43.204Z,6.40
2023-04-01T18:37:20.605Z,6.40
2023-04-01T18:39:54.091Z,6.40
2023-04-01T18:42:58.364Z,6.30
2023-04-01T18:45:35.760Z,6.30
2023-04-01T18:48:12.507Z,6.30
2023-04-01T18:50:54.809Z,6.30
2023-04-01T18:53:39.683Z,6.30
2023-04-01T18:56:23.022Z,6.30
2023-04-01T18:58:53.848Z,6.40
2023-04-01T19:01:49.688Z,6.40
2023-04-01T19:04:41.339Z,6.50
2023-04-01T19:07:42.345Z,6.50
2023-04-01T19:10:34.022Z,6.50
2023-04-01T19:13:07.327Z,6.50
2023-04-01T19:16:02.331Z,6.60
2023-04-01T19:18:48.732Z,6.60
2023-04-01T19:21:21.471Z,6.60
2023-04-01T19:24:13.778Z,6.60
2023-04-01T19:26:49.861Z,6.60
2023-04-01T19:29:46.457Z,6.60
2023-04-01T19:32:50.576Z,6.60
2023-04-01T19:35:59.682Z,6.70
2023-04-01T19:38:41.320Z,6.70
2023-04-01T19:41:40.593Z,6.80
2023-04-01T19:44:25.978Z,6.80
2023-04-01T19:47:30.688Z,6.90
2023-04-01T19:50:21.531Z,6.90
2023-04-01T19:52:49.516Z,6.90
2023-04-01T19:55:36.683Z,6.90
2023-04-01T19:58:21.991Z,6.90
2023-04-01T20:00:49.963Z,7.00
2023-04-01T20:03:23.114Z,7.00
2023-04-01T20:06:15.737Z,6.90
2023-04-01T20:09:05.166Z,6.90
2023-04-01T20:11:48.486Z,6.90
2023-04-01T20:14:31.119Z,6.80
2023-04-01T20:17:12.762Z,6.80
2023-04-01T20:19:43.092Z,6.80
2023-04-01T20:22:26.095Z,6.80
2023-04-01T20:24:53.875Z,6.70
2023-04-01T20:27:25.844Z,6.70
2023-04-01T20:30:20.528Z,6.70
2023-04-01T20:33:20.744Z,6.60
2023-04-01T20:36:09.408Z,6.60
2023-04-01T20:39:00.850Z,6.60
2023-04-01T20:41:33.889Z,6.50
2023-04-01T20:44:28.915Z,6.50
2023-04-01T20:47:03.499Z,6.50
2023-04-01T20:49:42.919Z,6.50
2023-04-01T20:52:15.936Z,6.50
2023-04-01T20:55:01.514Z,6.40
2023-04-01T20:57:36.832Z,6.40
2023-04-01T21:00:21.170Z,6.40
2023-04-01T21:03:12.904Z,6.40
2023-04-01T21:06:16.221Z,6.30
2023-04-01T21:09:11.317Z,6.30
2023-04-01T21:12:15.372Z,6.40
2023-04-01T21:14:59.764Z,6.40
2023-04-01T21:17:47.324Z,6.40
2023-04-01T21:20:53.108Z,6.50
2023-04-01T21:23:44.963Z,6.50
2023-04-01T21:26:30.626Z,6.50
2023-04-01T21:29:20.039Z,6.50
2023-04-01T21:31:58.982Z,6.60
2023-04-01T21:34:31.631Z,6.60
2023-04-01T21:37:24.644Z,6.60
2023-04-01T21:40:10.279Z,6.60
2023-04-01T21:42:42.732Z,6.70
2023-04-01T21:45:37.499Z,6.70
2023-04-01T21:48:25.903Z,6.70
2023-04-01T21:51:07.733Z,6.70
2023-04-01T21:53:34.338Z,6.70
2023-04-01T21:56:36.085Z,6.70
2023-04-01T21:59:36.707Z,6.70
2023-04-01T22:02:29.475Z,6.80
2023-04-01T22:05:11.519Z,6.80
2023-04-01T22:07:40.682Z,6.80
2023-04-01T22:10:28.886Z,6.80
2023-04-01T22:13:09.358Z,6.80
2023-04-01T22:15:50.784Z,6.80
2023-04-01T22:18:29.980Z,6.80
2023-04-01T22:21:14.205Z,6.80
2023-04-01T22:23:57.422Z,6.80
2023-04-01T22:26:34.926Z,6.80
2023-04-01T22:29:22.180Z,6.80
2023-04-01T22:31:50.943Z,6.80
2023-04-01T22:34:34.717Z,6.80
2023-04-01T22:37:14.411Z,6.80
2023-04-01T22:40:08.741Z,6.80
2023-04-01T22:42:38.619Z,6.80
2023-04-01T22:45:23.913Z,6.80
2023-04-01T22:47:57.878Z,6.80
2023-04-01T22:50:39.971Z,6.80
2023-04-01T22:53:18.529Z,6.80
2023-04-01T22:55:53.274Z,6.80
2023-04-01T22:58:37.308Z,6.80
2023-04-01T23:01:08.871Z,6.80
2023-04-01T23:03:41.346Z,6.80
2023-04-01T23:06:17.341Z,6.80
2023-04-01T23:09:13.125Z,6.70
2023-04-01T23:11:53.354Z,6.70
2023-04-01T23:14:27.449Z,6.70
2023-04-01T23:17:31.841Z,6.60
2023-04-01T23:20:33.647Z,6.60
2023-04-01T23:23:04.237Z,6.60
2023-04-01T23:25:51.473Z,6.60
2023-04-01T23:28:43.397Z,6.70
2023-04-01T23:31:36.357Z,6.70
2023-04-01T23:34:14.033Z,6.70
2023-04-01T23:36:44.164Z,6.70
2023-04-01T23:39:23.731Z,6.70
2023-04-01T23:41:53.038Z,6.70
2023-04-01T23:44:20.446Z,6.70
2023-04-01T23:46:48.696Z,6.70
2023-04-01T23:49:26.572Z,6.70
2023-04-01T23:52:01.254Z,6.70
2023-04-01T23:54:31.232Z,6.70
2023-04-01T23:56:58.495Z,6.70
2023-04-01T23:59:30.287Z,6.70
